Latest Weather Observations for Darwin Airport

IDD60801

Issued at 4:31 pm CST Tuesday 3 March 2015 (issued every 30 minutes, with the page automatically refreshed every 10 minutes)

About weather observations | Map of weather stations | Latest weather observations for NT | Other Formats
Station Details ID: 014015 Name: DARWIN AIRPORT Lat: -12.42 Lon: 130.89 Height: 30.4 m
Data from the previous 72 hours. | See also: Recent months at Darwin Airport
Date/Time
CST
Temp
°C
App
Temp
°C
Dew
Point
Rel
Hum
%
Delta-T
°C
Wind Press
QNH
hPa
Press
MSL
hPa
Rain
since 9 am
mm
Dir
 
Spd
km/h
Gust
km/h
Spd
kts
Gust
kts
03/04:00pm 30.2 32.5 25.1 74 3.6 NE 22 35 12 19 1003.9 - 0.6
03/03:30pm 29.8 32.7 25.1 76 3.3 ENE 19 26 10 14 1004.2 - 0.6
03/03:00pm 28.7 31.7 25.3 82 2.4 E 19 24 10 13 1004.7 1004.4 0.4
03/02:30pm 28.4 31.6 25.0 82 2.4 E 17 22 9 12 1005.0 - 0.4
03/02:00pm 28.7 32.0 25.1 81 2.5 ENE 17 20 9 11 1005.5 - 0.4
03/01:30pm 28.4 31.5 24.8 81 2.5 ENE 17 22 9 12 1005.9 - 0.4
03/01:00pm 26.4 29.1 24.7 90 1.2 ENE 19 26 10 14 1006.2 - 0.4
03/12:30pm 26.5 29.2 25.1 92 1.0 E 20 26 11 14 1006.6 - 0.4
03/12:15pm 26.9 29.1 24.9 89 1.4 ENE 22 33 12 18 1006.9 - 0.4
03/12:06pm 28.5 32.0 24.2 77 3.0 ENE 13 17 7 9 1006.9 - 0.0
03/12:00pm 28.5 31.6 23.6 75 3.4 ENE 13 19 7 10 1006.9 1006.6 0.0
03/11:51am 28.4 31.6 24.4 79 2.8 E 15 19 8 10 1006.9 - 0.0
03/11:43am 28.3 32.0 25.2 83 2.2 E 15 22 8 12 1006.9 - 0.0
03/11:36am 28.0 31.2 24.9 83 2.2 E 17 24 9 13 1007.0 - 0.0
03/11:30am 27.7 30.4 24.2 81 2.4 E 17 24 9 13 1007.1 - 0.0
03/11:00am 28.3 31.5 24.9 82 2.4 ENE 17 22 9 12 1007.2 - 0.0
03/10:30am 27.9 31.3 24.0 79 2.7 NE 13 22 7 12 1007.4 - 0.0
03/09:00am 26.5 28.9 24.3 88 1.5 E 19 28 10 15 1006.4 1006.1 35.0
03/08:30am 25.5 28.6 24.2 92 0.9 E 15 20 8 11 1006.4 - 35.0
03/08:00am 25.0 28.1 24.1 95 0.6 E 15 19 8 10 1005.9 - 35.0
03/07:30am 24.7 28.5 24.0 96 0.5 E 11 15 6 8 1005.4 - 35.0
03/07:00am 24.5 29.0 23.9 96 0.4 ENE 7 9 4 5 1005.2 - 35.0
03/06:30am 24.4 28.0 23.8 96 0.4 E 11 13 6 7 1004.8 - 35.0
03/06:00am 24.3 28.4 23.9 98 0.3 E 9 11 5 6 1004.1 1003.8 35.0
03/05:30am 24.5 28.5 23.8 96 0.5 E 9 13 5 7 1004.1 - 35.0
03/05:00am 24.5 28.2 23.9 96 0.4 ESE 11 15 6 8 1004.0 - 35.0
03/04:30am 24.4 28.0 23.8 96 0.4 ESE 11 15 6 8 1003.8 - 35.0
03/04:00am 24.5 29.0 23.9 96 0.4 SSE 7 9 4 5 1004.0 - 35.0
03/03:30am 24.6 28.4 24.0 96 0.4 SSE 11 15 6 8 1003.9 - 35.0
03/03:00am 24.7 28.7 23.8 95 0.6 S 9 11 5 6 1004.1 1003.8 35.0
03/02:50am 24.7 29.2 24.0 96 0.5 S 7 9 4 5 1004.2 - 35.0
03/02:30am 24.7 29.1 23.8 95 0.6 S 7 9 4 5 1004.4 - 35.0
03/02:00am 24.5 29.0 23.9 96 0.4 SSW 7 7 4 4 1004.8 - 35.0
03/01:30am 24.5 30.0 24.1 98 0.3 SSW 2 7 1 4 1005.1 - 34.8
03/01:00am 24.6 28.3 23.9 96 0.5 SSW 11 11 6 6 1005.4 - 34.8
03/12:30am 24.8 29.5 23.9 95 0.6 SSW 6 9 3 5 1005.5 - 34.8
03/12:00am 24.9 28.3 24.0 95 0.6 S 13 17 7 9 1005.6 1005.3 34.8
 
Date/Time
CST
Temp
°C
App
Temp
°C
Dew
Point
Rel
Hum
%
Delta-T
°C
Wind Press
QNH
hPa
Press
MSL
hPa
Rain
since 9 am
mm
Dir
 
Spd
km/h
Gust
km/h
Spd
kts
Gust
kts
02/11:30pm 24.8 28.6 24.1 96 0.5 SSW 11 13 6 7 1005.9 - 34.8
02/11:00pm 24.6 28.0 24.0 96 0.4 SSW 13 15 7 8 1006.0 - 34.8
02/10:30pm 24.6 28.0 24.0 96 0.4 SW 13 19 7 10 1006.1 - 34.8
02/10:25pm 24.6 28.0 24.0 96 0.4 SW 13 15 7 8 1006.1 - 34.8
02/10:00pm 24.5 28.3 24.1 98 0.3 SSW 11 15 6 8 1006.2 - 34.6
02/09:47pm 24.5 27.8 23.9 96 0.4 SSE 13 15 7 8 1006.1 - 34.4
02/09:30pm 24.5 26.4 23.8 96 0.5 S 20 24 11 13 1006.0 - 33.8
02/09:23pm 24.8 28.2 24.1 96 0.5 SSE 13 15 7 8 1006.0 - 33.2
02/09:00pm 24.9 28.3 24.0 95 0.6 SE 13 19 7 10 1005.6 1005.3 32.8
02/08:30pm 25.3 28.6 23.8 91 1.0 S 13 19 7 10 1005.3 - 32.4
02/08:26pm 25.3 29.4 24.0 92 0.9 SW 9 17 5 9 1005.3 - 32.4
02/08:00pm 25.5 29.6 23.9 91 1.1 SW 9 13 5 7 1004.6 - 32.4
02/07:30pm 25.2 28.8 23.7 91 1.0 SSW 11 13 6 7 1004.3 - 32.4
02/07:00pm 24.9 28.5 23.7 93 0.8 WSW 11 13 6 7 1003.7 - 32.4
02/06:30pm 24.5 28.0 23.5 94 0.7 WSW 11 13 6 7 1003.4 - 32.4
02/06:12pm 24.5 28.9 23.8 96 0.5 NW 7 9 4 5 1003.4 - 32.2
02/05:53pm 24.8 28.9 23.9 95 0.6 NNW 9 11 5 6 1003.8 - 30.0
02/05:30pm 24.5 28.1 23.8 96 0.5 WNW 11 15 6 8 1003.8 - 29.0
02/05:00pm 24.2 26.2 23.6 96 0.4 W 19 26 10 14 1003.5 - 28.4
02/04:30pm 24.8 27.5 24.1 96 0.5 W 17 24 9 13 1004.1 - 25.6
02/04:08pm 25.5 28.1 24.6 95 0.6 WNW 19 24 10 13 1004.1 - 17.6
02/04:00pm 25.8 28.4 24.6 93 0.8 W 19 24 10 13 1004.0 - 16.0
02/03:30pm 26.0 29.3 25.1 95 0.6 NNW 17 20 9 11 1003.6 - 13.2
02/03:00pm 26.1 29.6 24.8 92 0.9 WNW 15 24 8 13 1004.0 1003.7 12.4
02/02:30pm 25.5 26.7 24.5 94 0.7 WNW 26 30 14 16 1004.0 - 12.4
02/02:08pm 26.5 29.3 24.9 91 1.1 NW 19 32 10 17 1005.1 - 4.4
02/02:04pm 27.2 30.2 25.5 90 1.2 NW 20 32 11 17 1005.1 - 2.2
02/02:00pm 27.3 30.1 25.3 89 1.4 NW 20 32 11 17 1005.0 - 1.4
02/01:30pm 28.3 30.2 23.7 76 3.2 W 20 28 11 15 1004.9 - 0.6
02/01:00pm 29.0 29.4 23.8 73 3.6 W 28 33 15 18 1005.2 - 0.6
02/12:30pm 29.0 30.8 23.6 72 3.7 W 20 32 11 17 1005.6 - 0.6
02/12:00pm 29.3 32.0 24.7 76 3.2 WNW 19 24 10 13 1006.2 1005.9 0.6
02/11:30am 28.5 31.8 24.5 79 2.8 WNW 15 17 8 9 1006.7 - 0.6
02/11:00am 27.7 32.1 25.1 86 1.8 W 11 13 6 7 1006.7 - 0.6
02/10:30am 26.9 29.6 24.2 85 1.9 WNW 17 22 9 12 1006.8 - 0.4
02/10:00am 29.4 33.2 26.5 84 2.1 NW 19 28 10 15 1007.1 - 0.2
02/09:30am 29.4 35.6 26.3 83 2.2 WSW 6 9 3 5 1006.9 - 0.0
02/09:00am 28.5 34.4 26.8 90 1.2 SW 9 11 5 6 1006.9 1006.6 5.8
02/08:30am 28.1 34.2 27.0 94 0.8 SW 9 11 5 6 1006.6 - 5.8
02/08:00am 27.9 34.0 26.5 92 1.0 WSW 7 9 4 5 1006.4 - 5.8
02/07:30am 27.9 33.4 26.2 90 1.2 WSW 9 9 5 5 1005.9 - 5.8
02/07:00am 27.5 33.7 26.4 94 0.8 SW 6 7 3 4 1005.7 - 5.8
02/06:30am 28.0 33.4 26.0 89 1.4 WSW 9 11 5 6 1005.4 - 5.8
02/06:00am 27.8 32.9 26.1 90 1.2 W 11 13 6 7 1004.9 1004.6 5.8
02/05:30am 27.7 32.9 26.3 92 1.0 W 11 15 6 8 1004.8 - 5.8
02/05:00am 27.7 32.9 26.3 92 1.0 W 11 13 6 7 1004.9 - 5.8
02/04:30am 27.5 32.6 26.2 93 0.9 W 11 13 6 7 1004.7 - 5.8
02/04:00am 27.2 32.1 26.4 95 0.6 W 13 15 7 8 1004.4 - 5.8
02/03:30am 27.0 33.0 26.3 96 0.5 W 7 9 4 5 1004.6 - 5.8
02/03:00am 27.1 33.3 26.3 95 0.6 NW 6 7 3 4 1004.8 1004.5 5.8
02/02:30am 27.3 32.9 26.3 94 0.7 WNW 9 11 5 6 1005.2 - 5.8
02/02:00am 27.4 32.5 26.1 93 0.9 SW 11 15 6 8 1005.8 - 5.8
02/01:30am 27.6 32.3 26.1 91 1.1 SW 13 17 7 9 1006.0 - 5.8
02/01:00am 27.6 32.3 26.1 91 1.1 SSW 13 15 7 8 1006.8 - 5.8
02/12:30am 27.4 33.4 26.1 93 0.9 WNW 6 9 3 5 1007.2 - 5.8
02/12:00am 27.7 32.3 26.0 90 1.2 SW 13 17 7 9 1006.9 1006.6 5.8
 
Date/Time
CST
Temp
°C
App
Temp
°C
Dew
Point
Rel
Hum
%
Delta-T
°C
Wind Press
QNH
hPa
Press
MSL
hPa
Rain
since 9 am
mm
Dir
 
Spd
km/h
Gust
km/h
Spd
kts
Gust
kts
01/11:30pm 27.6 32.8 26.3 93 0.9 WSW 11 13 6 7 1007.3 - 5.8
01/11:00pm 27.7 32.5 26.3 92 1.0 W 13 15 7 8 1007.1 - 5.8
01/10:30pm 27.4 32.9 26.7 96 0.5 NNW 11 13 6 7 1006.9 - 5.8
01/10:18pm 27.2 34.2 26.4 95 0.6 ESE 2 7 1 4 1007.3 - 5.6
01/10:00pm 27.4 33.4 26.3 94 0.8 E 7 9 4 5 1007.9 - 5.0
01/09:57pm 27.4 33.4 26.3 94 0.8 NE 7 9 4 5 1008.0 - 4.6
01/09:30pm 27.9 33.9 26.4 91 1.1 NW 7 11 4 6 1007.7 - 3.8
01/09:00pm 28.0 33.2 25.7 87 1.6 W 9 11 5 6 1007.3 1007.0 3.6
01/08:30pm 28.2 32.4 25.4 85 2.0 WNW 13 17 7 9 1006.6 - 3.6
01/08:00pm 28.4 31.3 25.1 82 2.3 W 19 30 10 16 1006.4 - 3.6
01/07:30pm 28.9 30.7 25.4 81 2.5 W 26 33 14 18 1005.4 - 3.6
01/07:00pm 29.1 33.0 26.0 83 2.2 W 17 22 9 12 1005.4 - 3.6
01/06:30pm 29.2 32.5 25.7 81 2.5 W 19 24 10 13 1005.3 - 3.6
01/06:00pm 29.2 32.4 24.9 77 3.0 W 17 24 9 13 1004.6 1004.3 3.6
01/05:30pm 29.4 32.4 25.3 78 2.9 W 19 26 10 14 1004.1 - 3.6
01/05:00pm 29.3 33.3 26.7 86 1.9 W 19 26 10 14 1004.2 - 3.6
01/04:30pm 28.5 31.5 25.5 84 2.1 NW 20 28 11 15 1004.2 - 3.6
01/04:00pm 27.9 30.3 24.2 80 2.6 WNW 19 20 10 11 1004.2 - 3.6
01/03:30pm 25.7 29.7 23.7 89 1.4 WSW 9 17 5 9 1004.8 - 3.4
01/03:23pm 26.2 28.5 23.4 84 1.9 SW 17 24 9 13 1004.8 - 2.2
01/03:05pm 25.9 25.4 23.6 87 1.6 SW 32 50 17 27 1004.8 - 0.0
01/03:00pm 26.8 26.8 23.0 79 2.6 SW 28 35 15 19 1005.0 1004.7 0.0
01/02:30pm 29.5 31.5 26.3 83 2.3 WNW 28 35 15 19 1004.6 - 0.0
01/02:00pm 30.6 32.0 26.0 76 3.3 WNW 30 35 16 19 1005.4 - 0.0
01/01:30pm 32.0 33.2 25.7 69 4.5 WNW 30 35 16 19 1005.8 - 0.0
01/01:00pm 32.1 33.9 25.5 68 4.7 WNW 26 32 14 17 1006.2 - 0.0
01/12:30pm 31.6 33.1 25.6 70 4.3 WNW 28 33 15 18 1006.8 - 0.0
01/12:00pm 31.8 33.6 25.5 69 4.5 WNW 26 32 14 17 1007.2 1006.9 0.0
01/11:30am 31.7 34.1 25.2 68 4.6 W 22 33 12 18 1007.5 - 0.0
01/11:00am 31.5 34.0 25.9 72 4.0 W 24 30 13 16 1007.7 - 0.0
01/10:30am 30.4 33.1 25.6 75 3.4 W 22 28 12 15 1007.9 - 0.0
01/10:00am 30.3 32.9 25.5 75 3.4 WNW 22 28 12 15 1008.0 - 0.0
01/09:30am 30.3 34.2 26.1 78 3.0 W 17 20 9 11 1007.8 - 0.0
01/09:00am 29.5 33.6 25.7 80 2.7 W 15 20 8 11 1007.8 1007.5 0.0
01/08:30am 29.2 33.6 25.7 81 2.5 W 13 17 7 9 1007.4 - 0.0
01/08:00am 28.7 33.3 25.9 85 2.0 W 13 17 7 9 1007.1 - 0.0
01/07:30am 28.4 32.5 25.7 85 1.9 W 15 19 8 10 1006.5 - 0.0
01/07:00am 28.1 32.1 25.6 86 1.8 W 15 20 8 11 1006.0 - 0.0
01/06:30am 27.9 32.5 25.3 86 1.8 W 11 15 6 8 1006.0 - 0.0
01/06:00am 27.8 32.3 25.2 86 1.8 W 11 15 6 8 1005.7 1005.4 0.0
01/05:30am 28.0 32.2 25.3 85 1.9 W 13 19 7 10 1005.7 - 0.0
01/05:00am 28.0 31.7 25.2 85 2.0 W 15 19 8 10 1005.2 - 0.0
01/04:30am 27.9 31.6 25.1 85 2.0 W 15 20 8 11 1005.5 - 0.0
01/04:00am 28.0 31.4 25.2 85 2.0 W 17 24 9 13 1005.5 - 0.0
01/03:30am 28.0 31.1 25.4 86 1.8 W 19 24 10 13 1005.7 - 0.0
01/03:00am 27.9 31.3 25.8 88 1.5 W 19 24 10 13 1006.1 1005.8 0.0
01/02:30am 27.8 32.2 25.7 88 1.5 W 13 19 7 10 1006.0 - 0.0
01/02:00am 28.0 32.7 25.6 87 1.7 W 11 15 6 8 1006.5 - 0.0
01/01:30am 28.1 32.2 25.7 87 1.7 W 15 19 8 10 1006.8 - 0.0
01/01:00am 28.1 32.5 25.7 87 1.7 W 13 17 7 9 1006.9 - 0.0
01/12:30am 28.0 32.4 25.7 87 1.6 W 13 19 7 10 1007.1 - 0.0
01/12:00am 28.4 32.4 25.6 85 2.0 W 15 20 8 11 1008.0 1007.7 0.0
 
Date/Time
CST
Temp
°C
App
Temp
°C
Dew
Point
Rel
Hum
%
Delta-T
°C
Wind Press
QNH
hPa
Press
MSL
hPa
Rain
since 9 am
mm
Dir
 
Spd
km/h
Gust
km/h
Spd
kts
Gust
kts
28/11:30pm 28.5 32.2 25.7 85 2.0 W 17 24 9 13 1008.2 - 0.0
28/11:00pm 28.2 32.3 25.8 87 1.7 W 15 19 8 10 1008.2 - 0.0
28/10:30pm 28.3 32.8 25.8 86 1.8 WNW 13 17 7 9 1008.3 - 0.0
28/10:00pm 28.5 32.6 25.8 85 1.9 W 15 19 8 10 1008.2 - 0.0
28/09:30pm 28.6 32.3 25.8 85 2.0 W 17 20 9 11 1007.8 - 0.0
28/09:00pm 27.7 30.8 24.8 84 2.0 W 17 20 9 11 1006.7 1006.4 0.0
28/08:30pm 26.9 30.6 23.2 80 2.5 NW 9 11 5 6 1006.0 - 0.0
28/08:00pm 26.7 31.6 23.0 80 2.5 NE 2 7 1 4 1005.6 - 0.0
28/07:30pm 26.8 30.5 22.5 77 2.9 E 7 13 4 7 1005.6 - 0.0
28/07:00pm 27.0 30.6 22.1 74 3.3 SSE 6 9 3 5 1005.5 - 0.0
28/06:30pm 27.6 30.3 21.3 68 4.2 SSW 9 13 5 7 1005.9 - 0.0
28/06:00pm 27.3 26.1 21.5 70 3.9 SSW 30 39 16 21 1005.3 1005.0 0.0
28/05:30pm 30.7 31.8 25.6 74 3.6 WNW 30 35 16 19 1005.1 - 0.0
28/05:00pm 30.4 31.2 25.6 75 3.4 WNW 32 37 17 20 1005.0 - 0.0

Other Formats:

Comma delimited format used in spreadsheet applications
http://www.bom.gov.au/fwo/IDD60801/IDD60801.94120.axf

JavaScript Object Notation format (JSON) in row-major order
http://www.bom.gov.au/fwo/IDD60801/IDD60801.94120.json